createdAt,value
2023-04-17T00:01:34.377Z,79.60
2023-04-17T00:04:04.767Z,79.70
2023-04-17T00:06:36.899Z,79.70
2023-04-17T00:09:05.330Z,79.60
2023-04-17T00:11:34.154Z,79.70
2023-04-17T00:14:02.525Z,79.70
2023-04-17T00:16:31.379Z,79.60
2023-04-17T00:19:00.765Z,79.60
2023-04-17T00:21:30.187Z,79.50
2023-04-17T00:24:00.456Z,79.70
2023-04-17T00:26:29.757Z,79.70
2023-04-17T00:29:00.444Z,79.60
2023-04-17T00:31:28.980Z,79.60
2023-04-17T00:34:01.507Z,79.60
2023-04-17T00:36:31.650Z,79.50
2023-04-17T00:39:01.348Z,79.70
2023-04-17T00:41:30.149Z,79.60
2023-04-17T00:43:58.596Z,79.60
2023-04-17T00:46:27.122Z,79.60
2023-04-17T00:48:55.329Z,79.60
2023-04-17T00:51:24.351Z,79.60
2023-04-17T00:53:53.240Z,79.60
2023-04-17T00:56:24.131Z,79.60
2023-04-17T00:58:52.723Z,79.60
2023-04-17T01:01:22.717Z,79.60
2023-04-17T01:03:51.967Z,79.50
2023-04-17T01:06:22.830Z,79.70
2023-04-17T01:08:50.999Z,79.60
2023-04-17T01:11:19.995Z,79.60
2023-04-17T01:13:51.136Z,79.60
2023-04-17T01:16:21.253Z,79.50
2023-04-17T01:18:50.065Z,79.70
2023-04-17T01:21:18.351Z,79.70
2023-04-17T01:23:55.404Z,79.60
2023-04-17T01:26:32.294Z,79.80
2023-04-17T01:29:01.825Z,79.70
2023-04-17T01:31:32.386Z,79.80
2023-04-17T01:34:01.944Z,79.70
2023-04-17T01:36:30.136Z,79.70
2023-04-17T01:38:58.790Z,79.70
2023-04-17T01:41:27.198Z,79.70
2023-04-17T01:43:56.759Z,79.70
2023-04-17T01:46:27.516Z,79.70
2023-04-17T01:49:00.621Z,79.80
2023-04-17T01:51:31.203Z,79.80
2023-04-17T01:53:59.483Z,79.90
2023-04-17T01:56:28.367Z,79.90
2023-04-17T01:58:58.138Z,79.80
2023-04-17T02:01:27.573Z,79.90
2023-04-17T02:03:56.169Z,79.90
2023-04-17T02:06:24.899Z,79.80
2023-04-17T02:08:53.278Z,79.80
2023-04-17T02:11:22.120Z,79.80
2023-04-17T02:13:53.725Z,79.80
2023-04-17T02:16:23.351Z,79.80
2023-04-17T02:18:51.634Z,79.80
2023-04-17T02:21:19.943Z,79.80
2023-04-17T02:23:48.159Z,79.90
2023-04-17T02:26:16.684Z,79.90
2023-04-17T02:28:46.762Z,79.80
2023-04-17T02:31:16.535Z,79.90
2023-04-17T02:33:48.750Z,79.90
2023-04-17T02:36:19.030Z,79.90
2023-04-17T02:38:50.486Z,79.90
2023-04-17T02:41:19.830Z,79.90
2023-04-17T02:43:49.748Z,79.80
2023-04-17T02:46:18.991Z,79.90
2023-04-17T02:48:48.779Z,79.90
2023-04-17T02:51:17.115Z,79.80
2023-04-17T02:53:46.036Z,80.00
2023-04-17T02:56:14.432Z,79.80
2023-04-17T02:58:46.024Z,79.90
2023-04-17T03:01:14.930Z,79.90
2023-04-17T03:03:47.132Z,79.90
2023-04-17T03:06:18.236Z,79.90
2023-04-17T03:08:47.218Z,79.90
2023-04-17T03:11:15.835Z,79.90
2023-04-17T03:13:44.731Z,79.90
2023-04-17T03:16:15.815Z,79.90
2023-04-17T03:18:47.560Z,79.90
2023-04-17T03:21:17.556Z,79.90
2023-04-17T03:23:45.868Z,80.00
2023-04-17T03:26:15.900Z,80.10
2023-04-17T03:28:44.697Z,80.00
2023-04-17T03:31:15.533Z,80.10
2023-04-17T03:33:43.778Z,80.00
2023-04-17T03:36:12.808Z,80.00
2023-04-17T03:38:43.949Z,80.00
2023-04-17T03:41:11.923Z,80.00
2023-04-17T03:43:39.862Z,80.00
2023-04-17T03:46:11.617Z,80.00
2023-04-17T03:48:40.622Z,80.00
2023-04-17T03:51:09.390Z,80.00
2023-04-17T03:53:40.283Z,80.10
2023-04-17T03:56:13.315Z,80.10
2023-04-17T03:58:43.870Z,80.10
2023-04-17T04:01:14.809Z,80.20
2023-04-17T04:03:59.670Z,80.10
2023-04-17T04:06:30.312Z,80.20
2023-04-17T04:08:59.403Z,80.10
2023-04-17T04:11:29.790Z,80.10
2023-04-17T04:13:57.919Z,80.20
2023-04-17T04:16:27.110Z,80.20
2023-04-17T04:19:03.568Z,80.10
2023-04-17T04:21:31.851Z,80.20
2023-04-17T04:24:00.091Z,80.30
2023-04-17T04:26:33.594Z,80.20
2023-04-17T04:29:01.826Z,80.20
2023-04-17T04:31:53.051Z,80.20
2023-04-17T04:34:25.862Z,80.20
2023-04-17T04:36:54.049Z,80.10
2023-04-17T04:39:31.745Z,80.20
2023-04-17T04:42:06.249Z,80.20
2023-04-17T04:44:45.989Z,80.20
2023-04-17T04:47:15.004Z,80.00
2023-04-17T04:49:44.030Z,80.20
2023-04-17T04:52:13.660Z,80.20
2023-04-17T04:54:43.401Z,80.20
2023-04-17T04:57:13.526Z,80.20
2023-04-17T04:59:43.974Z,80.20
2023-04-17T05:02:29.215Z,80.10
2023-04-17T05:04:58.044Z,80.10
2023-04-17T05:07:27.331Z,80.10
2023-04-17T05:09:58.192Z,80.20
2023-04-17T05:12:28.474Z,80.20
2023-04-17T05:14:56.627Z,80.30
2023-04-17T05:17:25.080Z,80.30
2023-04-17T05:19:54.356Z,80.40
2023-04-17T05:22:23.996Z,80.20
2023-04-17T05:25:04.685Z,80.30
2023-04-17T05:27:34.959Z,80.20
2023-04-17T05:30:03.703Z,80.10
2023-04-17T05:32:35.690Z,80.00
2023-04-17T05:35:30.135Z,79.90
2023-04-17T05:37:58.166Z,79.90
2023-04-17T05:40:26.963Z,79.90
2023-04-17T05:42:59.083Z,79.90
2023-04-17T05:45:27.499Z,79.80
2023-04-17T05:47:55.849Z,79.80
2023-04-17T05:50:24.415Z,79.80
2023-04-17T05:52:53.325Z,79.80
2023-04-17T05:55:25.083Z,79.80
2023-04-17T05:57:58.914Z,79.70
2023-04-17T06:00:29.105Z,79.70
2023-04-17T06:03:04.170Z,79.70
2023-04-17T06:05:37.066Z,79.60
2023-04-17T06:08:06.658Z,79.70
2023-04-17T06:10:35.345Z,79.40
2023-04-17T06:13:04.932Z,79.60
2023-04-17T06:15:34.762Z,79.30
2023-04-17T06:18:03.204Z,79.40
2023-04-17T06:20:31.783Z,79.00
2023-04-17T06:23:01.182Z,78.70
2023-04-17T06:25:30.444Z,78.30
2023-04-17T06:27:59.794Z,77.50
2023-04-17T06:30:30.659Z,75.60
2023-04-17T06:32:59.385Z,73.80
2023-04-17T06:35:27.823Z,73.20
2023-04-17T06:38:04.888Z,72.40
2023-04-17T06:40:33.649Z,72.90
2023-04-17T06:43:06.710Z,73.30
2023-04-17T06:45:42.487Z,73.70
2023-04-17T06:48:10.902Z,73.80
2023-04-17T06:50:49.360Z,74.60
2023-04-17T06:53:17.671Z,75.30
2023-04-17T06:55:45.994Z,75.30
2023-04-17T06:58:14.317Z,75.50
2023-04-17T07:00:44.452Z,75.40
2023-04-17T07:03:14.211Z,75.70
2023-04-17T07:05:45.812Z,76.00
2023-04-17T07:08:16.143Z,75.70
2023-04-17T07:10:46.369Z,75.10
2023-04-17T07:13:15.449Z,74.90
2023-04-17T07:15:45.999Z,74.50
2023-04-17T07:18:14.361Z,74.10
2023-04-17T07:20:45.404Z,74.20
2023-04-17T07:23:13.759Z,73.80
2023-04-17T07:25:42.046Z,73.40
2023-04-17T07:28:11.223Z,73.10
2023-04-17T07:30:41.583Z,72.70
2023-04-17T07:33:12.413Z,72.00
2023-04-17T07:35:40.529Z,72.70
2023-04-17T07:38:08.920Z,72.60
2023-04-17T07:40:37.794Z,73.30
2023-04-17T07:43:05.929Z,73.20
2023-04-17T07:45:39.738Z,73.70
2023-04-17T07:48:09.540Z,74.50
2023-04-17T07:50:39.876Z,74.90
2023-04-17T07:53:09.446Z,75.10
2023-04-17T07:55:39.390Z,75.30
2023-04-17T07:58:07.458Z,75.50
2023-04-17T08:00:35.836Z,75.80
2023-04-17T08:03:03.968Z,75.60
2023-04-17T08:05:32.801Z,75.90
2023-04-17T08:08:03.510Z,75.80
2023-04-17T08:10:31.865Z,75.90
2023-04-17T08:13:04.333Z,75.70
2023-04-17T08:15:33.289Z,75.20
2023-04-17T08:18:01.875Z,75.30
2023-04-17T08:20:31.195Z,74.90
2023-04-17T08:22:59.729Z,74.50
2023-04-17T08:25:30.510Z,74.50
2023-04-17T08:28:00.387Z,74.10
2023-04-17T08:30:28.483Z,74.00
2023-04-17T08:32:57.628Z,73.60
2023-04-17T08:35:27.343Z,73.70
2023-04-17T08:37:58.905Z,73.70
2023-04-17T08:40:28.261Z,73.50
2023-04-17T08:42:58.777Z,73.60
2023-04-17T08:45:27.111Z,73.70
2023-04-17T08:47:56.107Z,73.80
2023-04-17T08:50:24.549Z,73.70
2023-04-17T08:52:53.425Z,73.70
2023-04-17T08:55:23.729Z,74.20
2023-04-17T08:57:58.914Z,74.40
2023-04-17T09:00:27.919Z,74.70
2023-04-17T09:02:58.194Z,75.20
2023-04-17T09:05:31.256Z,75.40
2023-04-17T09:08:12.871Z,76.20
2023-04-17T09:10:42.271Z,76.90
2023-04-17T09:13:16.142Z,77.50
2023-04-17T09:15:45.603Z,78.20
2023-04-17T09:18:27.878Z,78.50
2023-04-17T09:20:57.642Z,78.50
2023-04-17T09:23:26.192Z,78.80
2023-04-17T09:26:09.467Z,78.90
2023-04-17T09:28:40.164Z,79.00
2023-04-17T09:31:24.888Z,78.90
2023-04-17T09:33:58.104Z,79.00
2023-04-17T09:36:27.323Z,79.00
2023-04-17T09:38:57.165Z,79.20
2023-04-17T09:41:27.260Z,79.20
2023-04-17T09:43:57.892Z,79.30
2023-04-17T09:46:38.738Z,79.20
2023-04-17T09:49:09.625Z,79.20
2023-04-17T09:51:38.791Z,79.20
2023-04-17T09:54:08.451Z,79.10
2023-04-17T09:56:38.078Z,79.10
2023-04-17T09:59:09.094Z,79.10
2023-04-17T10:01:39.959Z,78.90
2023-04-17T10:04:10.087Z,78.90
2023-04-17T10:06:38.620Z,78.60
2023-04-17T10:09:08.261Z,78.80
2023-04-17T10:11:38.030Z,78.30
2023-04-17T10:14:11.331Z,78.20
2023-04-17T10:16:40.773Z,77.60
2023-04-17T10:19:24.135Z,77.20
2023-04-17T10:22:07.357Z,76.70
2023-04-17T10:24:35.582Z,73.80
2023-04-17T10:27:25.894Z,72.80
2023-04-17T10:29:56.302Z,68.30
2023-04-17T10:32:26.065Z,62.40
2023-04-17T10:34:55.546Z,53.90
2023-04-17T10:37:44.657Z,50.60
2023-04-17T10:40:20.720Z,47.40
2023-04-17T10:43:03.455Z,48.00
2023-04-17T10:45:51.312Z,51.00
2023-04-17T10:48:25.839Z,55.00
2023-04-17T10:50:53.897Z,56.70
2023-04-17T10:53:42.358Z,56.80
2023-04-17T10:56:21.470Z,59.00
2023-04-17T10:59:00.954Z,56.80
2023-04-17T11:01:32.225Z,58.40
2023-04-17T11:04:00.640Z,54.90
2023-04-17T11:09:25.730Z,53.90
2023-04-17T11:18:20.788Z,58.10
2023-04-17T11:20:57.424Z,51.40
2023-04-17T11:26:23.705Z,50.60
2023-04-17T11:29:17.452Z,53.60
2023-04-17T11:31:47.161Z,53.50
2023-04-17T11:34:18.269Z,54.40
2023-04-17T11:36:52.687Z,54.80
2023-04-17T11:39:21.293Z,56.10
2023-04-17T11:42:00.802Z,56.00
2023-04-17T11:44:57.780Z,56.00
2023-04-17T11:47:50.560Z,55.10
2023-04-17T11:50:26.740Z,54.50
2023-04-17T11:52:57.352Z,53.30
2023-04-17T11:55:35.340Z,52.50
2023-04-17T12:07:34.964Z,51.70
2023-04-17T12:13:07.688Z,51.00
2023-04-17T12:30:56.806Z,56.00
2023-04-17T12:33:32.719Z,56.10
2023-04-17T12:39:16.966Z,58.30
2023-04-17T12:44:48.818Z,60.10
2023-04-17T12:47:31.412Z,60.10
2023-04-17T12:50:01.916Z,61.20
2023-04-17T12:52:42.655Z,61.90
2023-04-17T13:01:47.610Z,63.30
2023-04-17T13:04:32.635Z,64.80
2023-04-17T13:07:02.423Z,64.00
2023-04-17T13:12:44.621Z,65.10
2023-04-17T13:15:16.122Z,63.30
2023-04-17T13:17:45.518Z,63.30
2023-04-17T13:20:15.625Z,63.50
2023-04-17T13:22:46.382Z,63.60
2023-04-17T13:25:35.430Z,64.60
2023-04-17T13:28:04.516Z,63.90
2023-04-17T13:30:33.585Z,64.00
2023-04-17T13:33:05.205Z,64.00
2023-04-17T13:36:18.774Z,62.40
2023-04-17T13:38:51.987Z,62.30
2023-04-17T13:41:21.796Z,61.50
2023-04-17T13:46:46.252Z,60.90
2023-04-17T13:52:00.592Z,59.70
2023-04-17T13:54:32.185Z,58.70
2023-04-17T14:02:34.190Z,54.90
2023-04-17T14:05:06.814Z,53.50
2023-04-17T14:07:42.240Z,52.70
2023-04-17T14:10:13.169Z,54.30
2023-04-17T14:12:42.458Z,54.80
2023-04-17T14:15:13.337Z,53.70
2023-04-17T14:17:44.577Z,55.40
2023-04-17T14:20:15.208Z,55.30
2023-04-17T14:22:43.764Z,55.20
2023-04-17T14:25:14.911Z,56.00
2023-04-17T14:27:49.915Z,54.80
2023-04-17T14:30:18.864Z,54.40
2023-04-17T14:32:48.455Z,53.70
2023-04-17T14:35:19.961Z,54.00
2023-04-17T14:37:51.183Z,54.20
2023-04-17T14:40:21.871Z,53.00
2023-04-17T14:42:54.623Z,53.10
2023-04-17T14:45:23.554Z,53.50
2023-04-17T14:50:39.568Z,55.50
2023-04-17T14:53:08.066Z,56.10
2023-04-17T14:55:39.532Z,56.30
2023-04-17T14:58:08.812Z,56.00
2023-04-17T15:00:40.422Z,55.90
2023-04-17T15:03:09.293Z,54.90
2023-04-17T15:05:43.469Z,55.50
2023-04-17T15:08:11.754Z,56.40
2023-04-17T15:10:50.662Z,56.20
2023-04-17T15:13:21.343Z,57.00
2023-04-17T15:15:50.272Z,57.00
2023-04-17T15:18:19.416Z,57.40
2023-04-17T15:20:47.958Z,57.00
2023-04-17T15:23:17.828Z,58.30
2023-04-17T15:25:47.768Z,58.80
2023-04-17T15:28:16.417Z,59.10
2023-04-17T15:30:48.259Z,58.90
2023-04-17T15:33:18.963Z,58.80
2023-04-17T15:35:49.889Z,58.30
2023-04-17T15:38:18.497Z,57.60
2023-04-17T15:40:50.796Z,57.80
2023-04-17T15:43:20.296Z,57.90
2023-04-17T15:45:50.443Z,57.50
2023-04-17T15:48:22.656Z,57.00
2023-04-17T15:50:51.337Z,57.00
2023-04-17T15:53:20.873Z,56.60
2023-04-17T15:55:55.181Z,57.00
2023-04-17T15:58:24.656Z,57.30
2023-04-17T16:01:00.167Z,56.30
2023-04-17T16:03:28.596Z,56.80
2023-04-17T16:05:56.924Z,56.90
2023-04-17T16:08:25.252Z,56.30
2023-04-17T16:11:05.776Z,56.30
2023-04-17T16:13:34.129Z,58.10
2023-04-17T16:16:11.312Z,58.00
2023-04-17T16:18:39.351Z,57.70
2023-04-17T16:21:10.856Z,57.10
2023-04-17T16:23:39.860Z,57.10
2023-04-17T16:26:10.196Z,56.70
2023-04-17T16:28:39.793Z,57.40
2023-04-17T16:31:09.021Z,57.30
2023-04-17T16:33:38.813Z,55.70
2023-04-17T16:36:07.866Z,56.00
2023-04-17T16:38:38.778Z,54.80
2023-04-17T16:41:11.435Z,55.60
2023-04-17T16:43:46.575Z,56.10
2023-04-17T16:46:24.098Z,55.70
2023-04-17T16:49:00.479Z,55.70
2023-04-17T16:51:28.838Z,56.00
2023-04-17T16:53:57.800Z,54.20
2023-04-17T16:56:28.049Z,52.20
2023-04-17T16:58:58.056Z,53.30
2023-04-17T17:01:27.293Z,51.80
2023-04-17T17:03:56.186Z,52.50
2023-04-17T17:06:24.629Z,53.20
2023-04-17T17:08:55.223Z,53.90
2023-04-17T17:11:24.940Z,52.90
2023-04-17T17:13:54.584Z,52.60
2023-04-17T17:16:25.459Z,53.20
2023-04-17T17:18:55.291Z,53.60
2023-04-17T17:21:26.819Z,54.90
2023-04-17T17:23:55.492Z,54.50
2023-04-17T17:26:28.318Z,55.50
2023-04-17T17:28:57.317Z,54.80
2023-04-17T17:31:34.949Z,55.30
2023-04-17T17:34:16.771Z,56.50
2023-04-17T17:36:56.434Z,54.50
2023-04-17T17:39:25.573Z,54.20
2023-04-17T17:41:55.935Z,54.70
2023-04-17T17:44:24.211Z,55.50
2023-04-17T17:46:55.955Z,55.20
2023-04-17T17:49:24.789Z,55.20
2023-04-17T17:51:52.961Z,55.70
2023-04-17T17:54:21.860Z,56.00
2023-04-17T17:56:50.436Z,56.60
2023-04-17T17:59:22.688Z,57.80
2023-04-17T18:01:51.098Z,56.60
2023-04-17T18:04:24.325Z,57.40
2023-04-17T18:06:53.333Z,57.00
2023-04-17T18:09:22.243Z,57.70
2023-04-17T18:11:53.249Z,57.40
2023-04-17T18:14:21.898Z,57.20
2023-04-17T18:16:52.006Z,58.50
2023-04-17T18:19:22.093Z,58.40
2023-04-17T18:21:50.556Z,59.80
2023-04-17T18:24:19.899Z,59.60
2023-04-17T18:26:48.894Z,59.10
2023-04-17T18:29:17.509Z,59.50
2023-04-17T18:31:46.077Z,59.80
2023-04-17T18:34:19.508Z,59.90
2023-04-17T18:36:49.617Z,61.10
2023-04-17T18:39:19.779Z,61.30
2023-04-17T18:41:51.102Z,61.30
2023-04-17T18:44:20.993Z,61.90
2023-04-17T18:46:49.542Z,61.70
2023-04-17T18:49:23.350Z,62.10
2023-04-17T18:52:01.555Z,61.30
2023-04-17T18:54:29.645Z,62.00
2023-04-17T18:56:58.784Z,62.30
2023-04-17T18:59:28.486Z,62.40
2023-04-17T19:01:56.960Z,63.20
2023-04-17T19:04:26.121Z,63.20
2023-04-17T19:13:40.992Z,63.70
2023-04-17T19:16:11.578Z,63.50
2023-04-17T19:18:43.093Z,63.30
2023-04-17T19:21:11.365Z,64.10
2023-04-17T19:23:41.806Z,64.00
2023-04-17T19:26:12.158Z,63.80
2023-04-17T19:28:40.679Z,64.20
2023-04-17T19:31:09.358Z,64.60
2023-04-17T19:33:39.271Z,64.90
2023-04-17T19:36:08.770Z,64.70
2023-04-17T19:38:41.179Z,64.40
2023-04-17T19:43:59.021Z,65.30
2023-04-17T19:46:41.179Z,64.50
2023-04-17T19:49:13.885Z,65.20
2023-04-17T19:52:01.363Z,65.30
2023-04-17T19:54:30.558Z,65.20
2023-04-17T19:57:03.980Z,65.20
2023-04-17T19:59:32.573Z,65.40
2023-04-17T20:02:06.351Z,65.50
2023-04-17T20:04:49.935Z,65.90
2023-04-17T20:07:24.229Z,65.90
2023-04-17T20:09:53.490Z,66.00
2023-04-17T20:12:23.314Z,66.80
2023-04-17T20:14:52.613Z,67.50
2023-04-17T20:17:22.409Z,67.50
2023-04-17T20:19:51.446Z,68.40
2023-04-17T20:22:22.066Z,68.80
2023-04-17T20:24:53.752Z,69.20
2023-04-17T20:27:23.393Z,69.60
2023-04-17T20:29:53.599Z,70.00
2023-04-17T20:32:22.296Z,70.30
2023-04-17T20:34:57.376Z,70.80
2023-04-17T20:37:29.680Z,71.00
2023-04-17T20:40:01.359Z,71.30
2023-04-17T20:42:33.160Z,71.40
2023-04-17T20:45:03.118Z,71.50
2023-04-17T20:47:31.389Z,71.60
2023-04-17T20:50:00.468Z,71.90
2023-04-17T20:52:31.515Z,71.90
2023-04-17T20:55:01.500Z,71.90
2023-04-17T20:57:31.563Z,72.10
2023-04-17T21:00:00.920Z,72.20
2023-04-17T21:02:30.714Z,72.20
2023-04-17T21:05:03.085Z,72.20
2023-04-17T21:07:32.466Z,72.40
2023-04-17T21:10:02.085Z,72.50
2023-04-17T21:12:40.546Z,72.70
2023-04-17T21:17:58.593Z,72.80
2023-04-17T21:20:30.128Z,72.80
2023-04-17T21:23:00.962Z,73.00
2023-04-17T21:25:31.398Z,73.00
2023-04-17T21:28:03.640Z,72.80
2023-04-17T21:30:46.001Z,73.00
2023-04-17T21:33:14.638Z,73.00
2023-04-17T21:35:43.622Z,73.30
2023-04-17T21:38:20.959Z,73.30
2023-04-17T21:40:51.802Z,73.30
2023-04-17T21:43:24.793Z,73.40
2023-04-17T21:45:57.873Z,73.60
2023-04-17T21:48:28.442Z,73.60
2023-04-17T21:51:04.443Z,73.70
2023-04-17T21:53:33.241Z,73.90
2023-04-17T21:56:01.730Z,74.00
2023-04-17T21:58:32.576Z,74.00
2023-04-17T22:01:03.250Z,74.10
2023-04-17T22:03:35.412Z,74.00
2023-04-17T22:06:04.096Z,74.10
2023-04-17T22:08:32.908Z,74.20
2023-04-17T22:11:01.308Z,74.10
2023-04-17T22:13:29.780Z,74.20
2023-04-17T22:16:01.428Z,74.20
2023-04-17T22:18:29.724Z,74.20
2023-04-17T22:20:58.439Z,74.30
2023-04-17T22:23:27.709Z,74.30
2023-04-17T22:25:56.269Z,74.30
2023-04-17T22:28:26.077Z,74.30
2023-04-17T22:30:54.891Z,74.20
2023-04-17T22:33:26.456Z,74.30
2023-04-17T22:35:55.326Z,74.30
2023-04-17T22:38:23.683Z,74.20
2023-04-17T22:40:52.277Z,74.30
2023-04-17T22:43:22.523Z,74.20
2023-04-17T22:45:50.701Z,74.20
2023-04-17T22:48:22.137Z,74.20
2023-04-17T22:50:52.787Z,74.20
2023-04-17T22:53:22.541Z,74.20
2023-04-17T22:56:01.092Z,74.20
2023-04-17T22:58:29.698Z,74.30
2023-04-17T23:00:58.752Z,74.40
2023-04-17T23:03:27.442Z,74.50
2023-04-17T23:06:08.480Z,74.60
2023-04-17T23:08:39.269Z,74.60
2023-04-17T23:14:17.625Z,74.60
2023-04-17T23:16:46.751Z,74.60
2023-04-17T23:19:15.690Z,74.70
2023-04-17T23:21:47.609Z,74.70
2023-04-17T23:24:17.361Z,74.70
2023-04-17T23:26:45.893Z,74.80
2023-04-17T23:29:14.626Z,74.80
2023-04-17T23:31:45.495Z,74.80
2023-04-17T23:34:14.911Z,74.80
2023-04-17T23:36:43.536Z,74.90
2023-04-17T23:39:15.160Z,74.80
2023-04-17T23:41:43.655Z,74.90
2023-04-17T23:44:12.867Z,74.80
2023-04-17T23:46:41.528Z,74.80
2023-04-17T23:49:09.949Z,74.90
2023-04-17T23:51:38.260Z,74.80
2023-04-17T23:54:08.181Z,74.80
2023-04-17T23:56:37.982Z,74.80
2023-04-17T23:59:06.248Z,74.60
